sensor_id;sensor_type;location;lat;lon;timestamp;temperature;humidity
40255;DHT22;25973;52.368;4.940;2022-10-18T00:01:36;15.80;99.90
40255;DHT22;25973;52.368;4.940;2022-10-18T00:04:02;15.80;99.90
40255;DHT22;25973;52.368;4.940;2022-10-18T00:06:27;15.80;99.90
40255;DHT22;25973;52.368;4.940;2022-10-18T00:08:53;15.70;99.90
40255;DHT22;25973;52.368;4.940;2022-10-18T00:11:18;15.70;99.90
40255;DHT22;25973;52.368;4.940;2022-10-18T00:13:44;15.80;99.90
40255;DHT22;25973;52.368;4.940;2022-10-18T00:16:12;15.80;99.90
40255;DHT22;25973;52.368;4.940;2022-10-18T00:18:38;15.70;99.90
40255;DHT22;25973;52.368;4.940;2022-10-18T00:21:07;15.70;99.90
40255;DHT22;25973;52.368;4.940;2022-10-18T00:23:34;15.70;99.90
40255;DHT22;25973;52.368;4.940;2022-10-18T00:26:04;15.70;99.90
40255;DHT22;25973;52.368;4.940;2022-10-18T00:28:30;15.60;99.90
40255;DHT22;25973;52.368;4.940;2022-10-18T00:30:56;15.60;99.90
40255;DHT22;25973;52.368;4.940;2022-10-18T00:33:22;15.60;99.90
40255;DHT22;25973;52.368;4.940;2022-10-18T00:35:47;15.60;99.90
40255;DHT22;25973;52.368;4.940;2022-10-18T00:38:15;15.60;99.90
40255;DHT22;25973;52.368;4.940;2022-10-18T00:40:41;15.50;99.90
40255;DHT22;25973;52.368;4.940;2022-10-18T00:43:10;15.50;99.90
40255;DHT22;25973;52.368;4.940;2022-10-18T00:45:39;15.50;99.90
40255;DHT22;25973;52.368;4.940;2022-10-18T00:48:04;15.50;99.90
40255;DHT22;25973;52.368;4.940;2022-10-18T00:50:31;15.50;99.90
40255;DHT22;25973;52.368;4.940;2022-10-18T00:53:01;15.50;99.90
40255;DHT22;25973;52.368;4.940;2022-10-18T00:55:30;15.40;99.90
40255;DHT22;25973;52.368;4.940;2022-10-18T00:57:56;15.40;99.90
40255;DHT22;25973;52.368;4.940;2022-10-18T01:00:22;15.40;99.90
40255;DHT22;25973;52.368;4.940;2022-10-18T01:02:48;15.40;99.90
40255;DHT22;25973;52.368;4.940;2022-10-18T01:05:15;15.30;99.90
40255;DHT22;25973;52.368;4.940;2022-10-18T01:07:58;15.30;99.90
40255;DHT22;25973;52.368;4.940;2022-10-18T01:21:58;15.20;99.90
40255;DHT22;25973;52.368;4.940;2022-10-18T01:32:47;15.10;99.90
40255;DHT22;25973;52.368;4.940;2022-10-18T01:35:24;15.10;99.90
40255;DHT22;25973;52.368;4.940;2022-10-18T01:37:51;15.10;99.90
40255;DHT22;25973;52.368;4.940;2022-10-18T01:40:21;15.00;99.90
40255;DHT22;25973;52.368;4.940;2022-10-18T01:42:48;15.00;99.90
40255;DHT22;25973;52.368;4.940;2022-10-18T01:45:15;15.00;99.90
40255;DHT22;25973;52.368;4.940;2022-10-18T01:47:45;15.00;99.90
40255;DHT22;25973;52.368;4.940;2022-10-18T01:50:11;15.00;99.90
40255;DHT22;25973;52.368;4.940;2022-10-18T01:52:50;14.90;99.90
40255;DHT22;25973;52.368;4.940;2022-10-18T01:55:17;15.00;99.90
40255;DHT22;25973;52.368;4.940;2022-10-18T02:00:43;15.00;99.90
40255;DHT22;25973;52.368;4.940;2022-10-18T02:03:21;14.90;99.90
40255;DHT22;25973;52.368;4.940;2022-10-18T02:05:50;14.90;99.90
40255;DHT22;25973;52.368;4.940;2022-10-18T02:11:38;14.90;99.90
40255;DHT22;25973;52.368;4.940;2022-10-18T02:14:10;14.90;99.90
40255;DHT22;25973;52.368;4.940;2022-10-18T02:16:51;14.90;99.90
40255;DHT22;25973;52.368;4.940;2022-10-18T02:19:29;14.90;99.90
40255;DHT22;25973;52.368;4.940;2022-10-18T02:21:57;14.80;99.90
40255;DHT22;25973;52.368;4.940;2022-10-18T02:24:26;14.80;99.90
40255;DHT22;25973;52.368;4.940;2022-10-18T02:26:54;14.80;99.90
40255;DHT22;25973;52.368;4.940;2022-10-18T02:29:19;14.80;99.90
40255;DHT22;25973;52.368;4.940;2022-10-18T02:31:49;14.80;99.90
40255;DHT22;25973;52.368;4.940;2022-10-18T02:34:24;14.80;99.90
40255;DHT22;25973;52.368;4.940;2022-10-18T02:36:58;14.70;99.90
40255;DHT22;25973;52.368;4.940;2022-10-18T02:39:31;14.70;99.90
40255;DHT22;25973;52.368;4.940;2022-10-18T02:41:58;14.70;99.90
40255;DHT22;25973;52.368;4.940;2022-10-18T02:44:24;14.70;99.90
40255;DHT22;25973;52.368;4.940;2022-10-18T02:46:51;14.70;99.90
40255;DHT22;25973;52.368;4.940;2022-10-18T02:49:16;14.70;99.90
40255;DHT22;25973;52.368;4.940;2022-10-18T02:51:42;14.60;99.90
40255;DHT22;25973;52.368;4.940;2022-10-18T02:54:10;14.60;99.90
40255;DHT22;25973;52.368;4.940;2022-10-18T02:56:36;14.70;99.90
40255;DHT22;25973;52.368;4.940;2022-10-18T02:59:01;14.60;99.90
40255;DHT22;25973;52.368;4.940;2022-10-18T03:01:32;14.60;99.90
40255;DHT22;25973;52.368;4.940;2022-10-18T03:03:58;14.60;99.90
40255;DHT22;25973;52.368;4.940;2022-10-18T03:06:24;14.60;99.90
40255;DHT22;25973;52.368;4.940;2022-10-18T03:08:49;14.60;99.90
40255;DHT22;25973;52.368;4.940;2022-10-18T03:11:15;14.60;99.90
40255;DHT22;25973;52.368;4.940;2022-10-18T03:13:40;14.50;99.90
40255;DHT22;25973;52.368;4.940;2022-10-18T03:16:06;14.50;99.90
40255;DHT22;25973;52.368;4.940;2022-10-18T03:18:31;14.50;99.90
40255;DHT22;25973;52.368;4.940;2022-10-18T03:20:57;14.50;99.90
40255;DHT22;25973;52.368;4.940;2022-10-18T03:23:22;14.50;99.90
40255;DHT22;25973;52.368;4.940;2022-10-18T03:25:48;14.50;99.90
40255;DHT22;25973;52.368;4.940;2022-10-18T03:28:16;14.50;99.90
40255;DHT22;25973;52.368;4.940;2022-10-18T03:30:42;14.50;99.90
40255;DHT22;25973;52.368;4.940;2022-10-18T03:33:07;14.50;99.90
40255;DHT22;25973;52.368;4.940;2022-10-18T03:35:33;14.50;99.90
40255;DHT22;25973;52.368;4.940;2022-10-18T03:37:58;14.40;99.90
40255;DHT22;25973;52.368;4.940;2022-10-18T03:40:24;14.40;99.90
40255;DHT22;25973;52.368;4.940;2022-10-18T03:42:50;14.40;99.90
40255;DHT22;25973;52.368;4.940;2022-10-18T03:45:15;14.40;99.90
40255;DHT22;25973;52.368;4.940;2022-10-18T03:47:41;14.30;99.90
40255;DHT22;25973;52.368;4.940;2022-10-18T03:50:06;14.30;99.90
40255;DHT22;25973;52.368;4.940;2022-10-18T03:52:32;14.30;99.90
40255;DHT22;25973;52.368;4.940;2022-10-18T03:54:58;14.30;99.90
40255;DHT22;25973;52.368;4.940;2022-10-18T03:57:23;14.20;99.90
40255;DHT22;25973;52.368;4.940;2022-10-18T03:59:49;14.20;99.90
40255;DHT22;25973;52.368;4.940;2022-10-18T04:02:14;14.20;99.90
40255;DHT22;25973;52.368;4.940;2022-10-18T04:04:40;14.20;99.90
40255;DHT22;25973;52.368;4.940;2022-10-18T04:07:05;14.10;99.90
40255;DHT22;25973;52.368;4.940;2022-10-18T04:09:31;14.10;99.90
40255;DHT22;25973;52.368;4.940;2022-10-18T04:11:56;14.10;99.90
40255;DHT22;25973;52.368;4.940;2022-10-18T04:14:22;14.10;99.90
40255;DHT22;25973;52.368;4.940;2022-10-18T04:16:50;14.10;99.90
40255;DHT22;25973;52.368;4.940;2022-10-18T04:19:16;14.10;99.90
40255;DHT22;25973;52.368;4.940;2022-10-18T04:21:42;14.00;99.90
40255;DHT22;25973;52.368;4.940;2022-10-18T04:24:07;14.00;99.90
40255;DHT22;25973;52.368;4.940;2022-10-18T04:26:33;14.00;99.90
40255;DHT22;25973;52.368;4.940;2022-10-18T04:28:58;14.00;99.90
40255;DHT22;25973;52.368;4.940;2022-10-18T04:31:24;14.00;99.90
40255;DHT22;25973;52.368;4.940;2022-10-18T04:33:49;14.00;99.90
40255;DHT22;25973;52.368;4.940;2022-10-18T04:36:15;14.00;99.90
40255;DHT22;25973;52.368;4.940;2022-10-18T04:38:40;13.90;99.90
40255;DHT22;25973;52.368;4.940;2022-10-18T04:41:06;13.90;99.90
40255;DHT22;25973;52.368;4.940;2022-10-18T04:43:31;13.90;99.90
40255;DHT22;25973;52.368;4.940;2022-10-18T04:45:57;13.80;99.90
40255;DHT22;25973;52.368;4.940;2022-10-18T04:48:22;13.80;99.90
40255;DHT22;25973;52.368;4.940;2022-10-18T04:50:49;13.80;99.90
40255;DHT22;25973;52.368;4.940;2022-10-18T04:53:35;13.80;99.90
40255;DHT22;25973;52.368;4.940;2022-10-18T04:56:04;13.80;99.90
40255;DHT22;25973;52.368;4.940;2022-10-18T04:58:29;13.70;99.90
40255;DHT22;25973;52.368;4.940;2022-10-18T05:00:55;13.70;99.90
40255;DHT22;25973;52.368;4.940;2022-10-18T05:03:20;13.70;99.90
40255;DHT22;25973;52.368;4.940;2022-10-18T05:05:46;13.70;99.90
40255;DHT22;25973;52.368;4.940;2022-10-18T05:08:12;13.70;99.90
40255;DHT22;25973;52.368;4.940;2022-10-18T05:10:37;13.60;99.90
40255;DHT22;25973;52.368;4.940;2022-10-18T05:13:06;13.60;99.90
40255;DHT22;25973;52.368;4.940;2022-10-18T05:15:34;13.50;99.90
40255;DHT22;25973;52.368;4.940;2022-10-18T05:18:03;13.50;99.90
40255;DHT22;25973;52.368;4.940;2022-10-18T05:20:29;13.50;99.90
40255;DHT22;25973;52.368;4.940;2022-10-18T05:22:54;13.50;99.90
40255;DHT22;25973;52.368;4.940;2022-10-18T05:25:20;13.50;99.90
40255;DHT22;25973;52.368;4.940;2022-10-18T05:27:45;13.40;99.90
40255;DHT22;25973;52.368;4.940;2022-10-18T05:30:11;13.40;99.90
40255;DHT22;25973;52.368;4.940;2022-10-18T05:32:36;13.30;99.90
40255;DHT22;25973;52.368;4.940;2022-10-18T05:35:02;13.40;99.90
40255;DHT22;25973;52.368;4.940;2022-10-18T05:37:27;13.30;99.90
40255;DHT22;25973;52.368;4.940;2022-10-18T05:39:53;13.30;99.90
40255;DHT22;25973;52.368;4.940;2022-10-18T05:42:18;13.30;99.90
40255;DHT22;25973;52.368;4.940;2022-10-18T05:44:44;13.20;99.90
40255;DHT22;25973;52.368;4.940;2022-10-18T05:47:09;13.20;99.90
40255;DHT22;25973;52.368;4.940;2022-10-18T05:49:35;13.20;99.90
40255;DHT22;25973;52.368;4.940;2022-10-18T05:52:01;13.20;99.90
40255;DHT22;25973;52.368;4.940;2022-10-18T05:54:26;13.20;99.90
40255;DHT22;25973;52.368;4.940;2022-10-18T05:56:52;13.20;99.90
40255;DHT22;25973;52.368;4.940;2022-10-18T05:59:17;13.10;99.90
40255;DHT22;25973;52.368;4.940;2022-10-18T06:01:43;13.10;99.90
40255;DHT22;25973;52.368;4.940;2022-10-18T06:04:09;13.00;99.90
40255;DHT22;25973;52.368;4.940;2022-10-18T06:06:36;13.00;99.90
40255;DHT22;25973;52.368;4.940;2022-10-18T06:09:03;13.00;99.90
40255;DHT22;25973;52.368;4.940;2022-10-18T06:11:29;13.00;99.90
40255;DHT22;25973;52.368;4.940;2022-10-18T06:13:55;13.00;99.90
40255;DHT22;25973;52.368;4.940;2022-10-18T06:16:23;12.90;99.90
40255;DHT22;25973;52.368;4.940;2022-10-18T06:18:53;12.90;99.90
40255;DHT22;25973;52.368;4.940;2022-10-18T06:21:20;12.90;99.90
40255;DHT22;25973;52.368;4.940;2022-10-18T06:23:49;12.90;99.90
40255;DHT22;25973;52.368;4.940;2022-10-18T06:26:15;12.90;99.90
40255;DHT22;25973;52.368;4.940;2022-10-18T06:28:41;12.90;99.90
40255;DHT22;25973;52.368;4.940;2022-10-18T06:31:07;12.90;99.90
40255;DHT22;25973;52.368;4.940;2022-10-18T06:33:34;12.90;99.90
40255;DHT22;25973;52.368;4.940;2022-10-18T06:38:30;12.90;99.90
40255;DHT22;25973;52.368;4.940;2022-10-18T06:40:56;12.90;99.90
40255;DHT22;25973;52.368;4.940;2022-10-18T06:43:23;12.90;99.90
40255;DHT22;25973;52.368;4.940;2022-10-18T06:45:49;12.90;99.90
40255;DHT22;25973;52.368;4.940;2022-10-18T06:48:16;13.00;99.90
40255;DHT22;25973;52.368;4.940;2022-10-18T06:51:04;13.00;99.90
40255;DHT22;25973;52.368;4.940;2022-10-18T06:53:33;13.00;99.90
40255;DHT22;25973;52.368;4.940;2022-10-18T06:56:04;13.00;99.90
40255;DHT22;25973;52.368;4.940;2022-10-18T06:58:30;13.10;99.90
40255;DHT22;25973;52.368;4.940;2022-10-18T07:00:56;13.10;99.90
40255;DHT22;25973;52.368;4.940;2022-10-18T07:03:22;13.10;99.90
40255;DHT22;25973;52.368;4.940;2022-10-18T07:05:49;13.20;99.90
40255;DHT22;25973;52.368;4.940;2022-10-18T07:08:15;13.20;99.90
40255;DHT22;25973;52.368;4.940;2022-10-18T07:10:41;13.30;99.90
40255;DHT22;25973;52.368;4.940;2022-10-18T07:13:07;13.30;99.90
40255;DHT22;25973;52.368;4.940;2022-10-18T07:15:32;13.30;99.90
40255;DHT22;25973;52.368;4.940;2022-10-18T07:18:05;13.40;99.90
40255;DHT22;25973;52.368;4.940;2022-10-18T07:20:30;13.50;99.90
40255;DHT22;25973;52.368;4.940;2022-10-18T07:22:59;13.60;99.90
40255;DHT22;25973;52.368;4.940;2022-10-18T07:25:25;13.70;99.90
40255;DHT22;25973;52.368;4.940;2022-10-18T07:27:50;13.80;99.90
40255;DHT22;25973;52.368;4.940;2022-10-18T07:30:16;14.00;99.90
40255;DHT22;25973;52.368;4.940;2022-10-18T07:32:41;14.20;99.90
40255;DHT22;25973;52.368;4.940;2022-10-18T07:35:07;14.40;99.90
40255;DHT22;25973;52.368;4.940;2022-10-18T07:37:33;14.60;99.90
40255;DHT22;25973;52.368;4.940;2022-10-18T07:39:58;14.90;99.90
40255;DHT22;25973;52.368;4.940;2022-10-18T07:42:24;15.10;99.90
40255;DHT22;25973;52.368;4.940;2022-10-18T07:44:49;15.30;99.90
40255;DHT22;25973;52.368;4.940;2022-10-18T07:47:15;15.60;99.90
40255;DHT22;25973;52.368;4.940;2022-10-18T07:49:40;15.80;99.90
40255;DHT22;25973;52.368;4.940;2022-10-18T07:52:06;16.00;99.90
40255;DHT22;25973;52.368;4.940;2022-10-18T07:54:32;16.20;99.90
40255;DHT22;25973;52.368;4.940;2022-10-18T07:56:57;16.40;99.90
40255;DHT22;25973;52.368;4.940;2022-10-18T07:59:22;16.40;99.90
40255;DHT22;25973;52.368;4.940;2022-10-18T08:01:48;16.60;99.90
40255;DHT22;25973;52.368;4.940;2022-10-18T08:04:13;16.70;99.90
40255;DHT22;25973;52.368;4.940;2022-10-18T08:06:39;16.80;99.90
40255;DHT22;25973;52.368;4.940;2022-10-18T08:09:05;16.90;99.90
40255;DHT22;25973;52.368;4.940;2022-10-18T08:11:31;17.00;99.90
40255;DHT22;25973;52.368;4.940;2022-10-18T08:13:56;17.10;99.90
40255;DHT22;25973;52.368;4.940;2022-10-18T08:16:27;17.20;99.90
40255;DHT22;25973;52.368;4.940;2022-10-18T08:18:55;17.40;99.90
40255;DHT22;25973;52.368;4.940;2022-10-18T08:21:21;17.50;99.90
40255;DHT22;25973;52.368;4.940;2022-10-18T08:23:48;17.70;99.90
40255;DHT22;25973;52.368;4.940;2022-10-18T08:26:16;17.80;99.90
40255;DHT22;25973;52.368;4.940;2022-10-18T08:28:43;18.00;99.90
40255;DHT22;25973;52.368;4.940;2022-10-18T08:31:12;18.10;99.90
40255;DHT22;25973;52.368;4.940;2022-10-18T08:33:39;18.30;99.90
40255;DHT22;25973;52.368;4.940;2022-10-18T08:36:07;18.40;99.90
40255;DHT22;25973;52.368;4.940;2022-10-18T08:38:36;18.60;99.90
40255;DHT22;25973;52.368;4.940;2022-10-18T08:46:28;18.90;99.90
40255;DHT22;25973;52.368;4.940;2022-10-18T08:48:55;19.00;99.90
40255;DHT22;25973;52.368;4.940;2022-10-18T08:51:47;19.20;99.90
40255;DHT22;25973;52.368;4.940;2022-10-18T08:54:14;19.30;99.90
40255;DHT22;25973;52.368;4.940;2022-10-18T08:56:46;19.40;99.90
40255;DHT22;25973;52.368;4.940;2022-10-18T08:59:16;19.60;99.90
40255;DHT22;25973;52.368;4.940;2022-10-18T09:02:05;19.80;99.90
40255;DHT22;25973;52.368;4.940;2022-10-18T09:04:51;20.00;99.90
40255;DHT22;25973;52.368;4.940;2022-10-18T09:07:49;20.20;99.90
40255;DHT22;25973;52.368;4.940;2022-10-18T09:21:54;21.20;99.90
40255;DHT22;25973;52.368;4.940;2022-10-18T09:24:53;21.40;99.90
40255;DHT22;25973;52.368;4.940;2022-10-18T09:27:34;21.60;99.90
40255;DHT22;25973;52.368;4.940;2022-10-18T09:30:08;21.80;99.90
40255;DHT22;25973;52.368;4.940;2022-10-18T09:35:29;22.30;99.90
40255;DHT22;25973;52.368;4.940;2022-10-18T09:38:09;22.60;99.90
40255;DHT22;25973;52.368;4.940;2022-10-18T09:40:52;22.90;99.90
40255;DHT22;25973;52.368;4.940;2022-10-18T09:43:23;23.10;99.90
40255;DHT22;25973;52.368;4.940;2022-10-18T09:45:52;23.50;99.90
40255;DHT22;25973;52.368;4.940;2022-10-18T09:48:23;23.90;99.90
40255;DHT22;25973;52.368;4.940;2022-10-18T09:51:03;24.50;99.90
40255;DHT22;25973;52.368;4.940;2022-10-18T09:57:12;26.30;96.90
40255;DHT22;25973;52.368;4.940;2022-10-18T09:59:41;27.60;95.00
40255;DHT22;25973;52.368;4.940;2022-10-18T10:02:12;28.90;93.30
40255;DHT22;25973;52.368;4.940;2022-10-18T10:04:38;30.70;91.20
40255;DHT22;25973;52.368;4.940;2022-10-18T10:07:07;32.70;89.50
40255;DHT22;25973;52.368;4.940;2022-10-18T10:09:47;34.70;84.80
40255;DHT22;25973;52.368;4.940;2022-10-18T10:12:33;36.20;81.40
40255;DHT22;25973;52.368;4.940;2022-10-18T10:15:21;37.50;78.10
40255;DHT22;25973;52.368;4.940;2022-10-18T10:18:02;38.40;74.70
40255;DHT22;25973;52.368;4.940;2022-10-18T10:20:35;39.00;73.00
40255;DHT22;25973;52.368;4.940;2022-10-18T10:23:22;39.40;71.80
40255;DHT22;25973;52.368;4.940;2022-10-18T10:25:54;39.50;70.30
40255;DHT22;25973;52.368;4.940;2022-10-18T10:28:23;39.60;69.50
40255;DHT22;25973;52.368;4.940;2022-10-18T10:30:50;39.90;68.80
40255;DHT22;25973;52.368;4.940;2022-10-18T10:33:34;39.90;67.30
40255;DHT22;25973;52.368;4.940;2022-10-18T10:36:02;39.50;66.70
40255;DHT22;25973;52.368;4.940;2022-10-18T10:38:29;38.60;67.60
40255;DHT22;25973;52.368;4.940;2022-10-18T10:40:58;36.30;68.60
40255;DHT22;25973;52.368;4.940;2022-10-18T10:46:01;31.20;73.20
40255;DHT22;25973;52.368;4.940;2022-10-18T10:48:31;29.10;76.90
40255;DHT22;25973;52.368;4.940;2022-10-18T10:55:54;24.90;86.80
40255;DHT22;25973;52.368;4.940;2022-10-18T10:58:20;23.90;90.50
40255;DHT22;25973;52.368;4.940;2022-10-18T11:00:46;23.20;91.90
40255;DHT22;25973;52.368;4.940;2022-10-18T11:03:17;22.50;92.80
40255;DHT22;25973;52.368;4.940;2022-10-18T11:05:53;22.00;94.90
40255;DHT22;25973;52.368;4.940;2022-10-18T11:08:25;21.50;96.80
40255;DHT22;25973;52.368;4.940;2022-10-18T11:11:20;21.00;99.00
40255;DHT22;25973;52.368;4.940;2022-10-18T11:13:57;20.70;99.90
40255;DHT22;25973;52.368;4.940;2022-10-18T11:16:35;20.30;99.90
40255;DHT22;25973;52.368;4.940;2022-10-18T11:19:10;20.10;99.90
40255;DHT22;25973;52.368;4.940;2022-10-18T11:21:37;19.90;99.90
40255;DHT22;25973;52.368;4.940;2022-10-18T11:24:06;19.70;99.90
40255;DHT22;25973;52.368;4.940;2022-10-18T11:26:45;19.50;99.90
40255;DHT22;25973;52.368;4.940;2022-10-18T11:29:25;19.40;99.90
40255;DHT22;25973;52.368;4.940;2022-10-18T11:35:44;19.10;99.90
40255;DHT22;25973;52.368;4.940;2022-10-18T11:38:28;19.00;99.90
40255;DHT22;25973;52.368;4.940;2022-10-18T11:49:42;18.70;99.90
40255;DHT22;25973;52.368;4.940;2022-10-18T11:55:00;18.70;99.90
40255;DHT22;25973;52.368;4.940;2022-10-18T12:03:11;18.60;99.90
40255;DHT22;25973;52.368;4.940;2022-10-18T12:05:42;18.60;99.90
40255;DHT22;25973;52.368;4.940;2022-10-18T12:08:30;18.60;99.90
40255;DHT22;25973;52.368;4.940;2022-10-18T12:11:00;18.50;99.90
40255;DHT22;25973;52.368;4.940;2022-10-18T12:14:21;18.50;99.90
40255;DHT22;25973;52.368;4.940;2022-10-18T12:16:40;18.40;99.90
40255;DHT22;25973;52.368;4.940;2022-10-18T12:19:15;18.30;99.90
40255;DHT22;25973;52.368;4.940;2022-10-18T12:21:43;18.40;99.90
40255;DHT22;25973;52.368;4.940;2022-10-18T12:24:14;18.30;99.90
40255;DHT22;25973;52.368;4.940;2022-10-18T12:26:43;18.30;99.90
40255;DHT22;25973;52.368;4.940;2022-10-18T12:29:26;18.40;99.90
40255;DHT22;25973;52.368;4.940;2022-10-18T12:31:57;18.30;99.90
40255;DHT22;25973;52.368;4.940;2022-10-18T12:42:44;18.40;99.90
40255;DHT22;25973;52.368;4.940;2022-10-18T12:45:31;18.40;99.90
40255;DHT22;25973;52.368;4.940;2022-10-18T12:48:05;18.50;99.90
40255;DHT22;25973;52.368;4.940;2022-10-18T12:50:39;18.40;99.90
40255;DHT22;25973;52.368;4.940;2022-10-18T12:55:39;18.40;99.90
40255;DHT22;25973;52.368;4.940;2022-10-18T13:16:53;18.20;99.90
40255;DHT22;25973;52.368;4.940;2022-10-18T13:22:35;18.20;99.90
40255;DHT22;25973;52.368;4.940;2022-10-18T13:28:03;18.20;99.90
40255;DHT22;25973;52.368;4.940;2022-10-18T13:35:59;18.00;99.90
40255;DHT22;25973;52.368;4.940;2022-10-18T13:41:02;18.00;99.90
40255;DHT22;25973;52.368;4.940;2022-10-18T13:43:57;18.00;99.90
40255;DHT22;25973;52.368;4.940;2022-10-18T13:52:20;17.90;99.90
40255;DHT22;25973;52.368;4.940;2022-10-18T13:57:53;17.90;99.90
40255;DHT22;25973;52.368;4.940;2022-10-18T14:04:01;17.90;99.90
40255;DHT22;25973;52.368;4.940;2022-10-18T14:06:22;17.90;99.90
40255;DHT22;25973;52.368;4.940;2022-10-18T14:09:03;17.80;99.90
40255;DHT22;25973;52.368;4.940;2022-10-18T14:11:37;17.70;99.90
40255;DHT22;25973;52.368;4.940;2022-10-18T14:14:19;17.70;99.90
40255;DHT22;25973;52.368;4.940;2022-10-18T14:16:57;17.70;99.90
40255;DHT22;25973;52.368;4.940;2022-10-18T14:22:19;17.70;99.90
40255;DHT22;25973;52.368;4.940;2022-10-18T14:24:48;17.60;99.90
40255;DHT22;25973;52.368;4.940;2022-10-18T14:27:16;17.60;99.90
40255;DHT22;25973;52.368;4.940;2022-10-18T14:29:42;17.60;99.90
40255;DHT22;25973;52.368;4.940;2022-10-18T14:32:10;17.60;99.90
40255;DHT22;25973;52.368;4.940;2022-10-18T14:34:43;17.60;99.90
40255;DHT22;25973;52.368;4.940;2022-10-18T14:37:24;17.60;99.90
40255;DHT22;25973;52.368;4.940;2022-10-18T14:39:50;17.60;99.90
40255;DHT22;25973;52.368;4.940;2022-10-18T14:42:21;17.60;99.90
40255;DHT22;25973;52.368;4.940;2022-10-18T14:44:47;17.60;99.90
40255;DHT22;25973;52.368;4.940;2022-10-18T14:47:23;17.60;99.90
40255;DHT22;25973;52.368;4.940;2022-10-18T14:49:50;17.50;99.90
40255;DHT22;25973;52.368;4.940;2022-10-18T14:52:24;17.50;99.90
40255;DHT22;25973;52.368;4.940;2022-10-18T14:54:53;17.50;99.90
40255;DHT22;25973;52.368;4.940;2022-10-18T14:57:24;17.40;99.90
40255;DHT22;25973;52.368;4.940;2022-10-18T14:59:53;17.40;99.90
40255;DHT22;25973;52.368;4.940;2022-10-18T15:02:24;17.40;99.90
40255;DHT22;25973;52.368;4.940;2022-10-18T15:05:05;17.30;99.90
40255;DHT22;25973;52.368;4.940;2022-10-18T15:07:31;17.30;99.90
40255;DHT22;25973;52.368;4.940;2022-10-18T15:09:59;17.30;99.90
40255;DHT22;25973;52.368;4.940;2022-10-18T15:12:26;17.30;99.90
40255;DHT22;25973;52.368;4.940;2022-10-18T15:14:53;17.20;99.90
40255;DHT22;25973;52.368;4.940;2022-10-18T15:17:25;17.20;99.90
40255;DHT22;25973;52.368;4.940;2022-10-18T15:20:03;17.20;99.90
40255;DHT22;25973;52.368;4.940;2022-10-18T15:22:41;17.10;99.90
40255;DHT22;25973;52.368;4.940;2022-10-18T15:25:26;17.10;99.90
40255;DHT22;25973;52.368;4.940;2022-10-18T15:27:56;17.10;99.90
40255;DHT22;25973;52.368;4.940;2022-10-18T15:30:36;17.00;99.90
40255;DHT22;25973;52.368;4.940;2022-10-18T15:33:04;17.00;99.90
40255;DHT22;25973;52.368;4.940;2022-10-18T15:35:35;17.00;99.90
40255;DHT22;25973;52.368;4.940;2022-10-18T15:38:14;17.00;99.90
40255;DHT22;25973;52.368;4.940;2022-10-18T15:40:40;17.00;99.90
40255;DHT22;25973;52.368;4.940;2022-10-18T15:45:48;16.90;99.90
40255;DHT22;25973;52.368;4.940;2022-10-18T15:50:49;16.80;99.90
40255;DHT22;25973;52.368;4.940;2022-10-18T15:58:37;16.80;99.90
40255;DHT22;25973;52.368;4.940;2022-10-18T16:01:03;16.70;99.90
40255;DHT22;25973;52.368;4.940;2022-10-18T16:03:35;16.70;99.90
40255;DHT22;25973;52.368;4.940;2022-10-18T16:06:05;16.70;99.90
40255;DHT22;25973;52.368;4.940;2022-10-18T16:08:31;16.70;99.90
40255;DHT22;25973;52.368;4.940;2022-10-18T16:11:01;16.60;99.90
40255;DHT22;25973;52.368;4.940;2022-10-18T16:13:27;16.50;99.90
40255;DHT22;25973;52.368;4.940;2022-10-18T16:15:52;16.50;99.90
40255;DHT22;25973;52.368;4.940;2022-10-18T16:18:20;16.50;99.90
40255;DHT22;25973;52.368;4.940;2022-10-18T16:20:47;16.40;99.90
40255;DHT22;25973;52.368;4.940;2022-10-18T16:23:25;16.40;99.90
40255;DHT22;25973;52.368;4.940;2022-10-18T16:25:51;16.40;99.90
40255;DHT22;25973;52.368;4.940;2022-10-18T16:28:22;16.40;99.90
40255;DHT22;25973;52.368;4.940;2022-10-18T16:30:55;16.30;99.90
40255;DHT22;25973;52.368;4.940;2022-10-18T16:33:21;16.30;99.90
40255;DHT22;25973;52.368;4.940;2022-10-18T16:35:47;16.20;99.90
40255;DHT22;25973;52.368;4.940;2022-10-18T16:38:33;16.20;99.90
40255;DHT22;25973;52.368;4.940;2022-10-18T16:41:00;16.10;99.90
40255;DHT22;25973;52.368;4.940;2022-10-18T16:43:26;16.10;99.90
40255;DHT22;25973;52.368;4.940;2022-10-18T16:45:52;16.00;99.90
40255;DHT22;25973;52.368;4.940;2022-10-18T16:48:21;16.00;99.90
40255;DHT22;25973;52.368;4.940;2022-10-18T16:50:47;16.00;99.90
40255;DHT22;25973;52.368;4.940;2022-10-18T16:53:14;15.90;99.90
40255;DHT22;25973;52.368;4.940;2022-10-18T16:55:40;15.90;99.90
40255;DHT22;25973;52.368;4.940;2022-10-18T16:58:12;15.80;99.90
40255;DHT22;25973;52.368;4.940;2022-10-18T17:00:38;15.80;99.90
40255;DHT22;25973;52.368;4.940;2022-10-18T17:03:05;15.80;99.90
40255;DHT22;25973;52.368;4.940;2022-10-18T17:05:31;15.70;99.90
40255;DHT22;25973;52.368;4.940;2022-10-18T17:07:57;15.70;99.90
40255;DHT22;25973;52.368;4.940;2022-10-18T17:10:22;15.70;99.90
40255;DHT22;25973;52.368;4.940;2022-10-18T17:12:49;15.60;99.90
40255;DHT22;25973;52.368;4.940;2022-10-18T17:15:16;15.60;99.90
40255;DHT22;25973;52.368;4.940;2022-10-18T17:17:41;15.60;99.90
40255;DHT22;25973;52.368;4.940;2022-10-18T17:20:08;15.60;99.90
40255;DHT22;25973;52.368;4.940;2022-10-18T17:22:33;15.50;99.90
40255;DHT22;25973;52.368;4.940;2022-10-18T17:24:59;15.50;99.90
40255;DHT22;25973;52.368;4.940;2022-10-18T17:27:24;15.50;99.90
40255;DHT22;25973;52.368;4.940;2022-10-18T17:29:50;15.40;99.90
40255;DHT22;25973;52.368;4.940;2022-10-18T17:32:16;15.40;99.90
40255;DHT22;25973;52.368;4.940;2022-10-18T17:34:41;15.30;99.90
40255;DHT22;25973;52.368;4.940;2022-10-18T17:37:07;15.30;99.90
40255;DHT22;25973;52.368;4.940;2022-10-18T17:39:32;15.30;99.90
40255;DHT22;25973;52.368;4.940;2022-10-18T17:41:59;15.20;99.90
40255;DHT22;25973;52.368;4.940;2022-10-18T17:44:24;15.20;99.90
40255;DHT22;25973;52.368;4.940;2022-10-18T17:46:50;15.20;99.90
40255;DHT22;25973;52.368;4.940;2022-10-18T17:49:16;15.20;99.90
40255;DHT22;25973;52.368;4.940;2022-10-18T17:51:42;15.20;99.90
40255;DHT22;25973;52.368;4.940;2022-10-18T17:54:10;15.10;99.90
40255;DHT22;25973;52.368;4.940;2022-10-18T17:56:36;15.10;99.90
40255;DHT22;25973;52.368;4.940;2022-10-18T17:59:01;15.00;99.90
40255;DHT22;25973;52.368;4.940;2022-10-18T18:01:27;15.00;99.90
40255;DHT22;25973;52.368;4.940;2022-10-18T18:03:57;15.00;99.90
40255;DHT22;25973;52.368;4.940;2022-10-18T18:06:26;15.00;99.90
40255;DHT22;25973;52.368;4.940;2022-10-18T18:09:16;15.00;99.90
40255;DHT22;25973;52.368;4.940;2022-10-18T18:11:43;14.90;99.90
40255;DHT22;25973;52.368;4.940;2022-10-18T18:14:10;14.90;99.90